sensor_id;sensor_type;location;lat;lon;timestamp;pressure;altitude;pressure_sealevel;temperature;humidity
39209;BME280;24929;51.982;4.664;2023-04-26T00:01:10;78079.19;;;-143.36;nan
39209;BME280;24929;51.982;4.664;2023-04-26T00:03:36;78105.28;;;-143.36;nan
39209;BME280;24929;51.982;4.664;2023-04-26T00:06:04;78093.22;;;-143.36;nan
39209;BME280;24929;51.982;4.664;2023-04-26T00:08:33;78085.19;;;-143.36;nan
39209;BME280;24929;51.982;4.664;2023-04-26T00:10:58;78089.22;;;-143.36;nan
39209;BME280;24929;51.982;4.664;2023-04-26T00:13:24;78107.28;;;-143.36;nan
39209;BME280;24929;51.982;4.664;2023-04-26T00:15:49;78085.19;;;-143.36;nan
39209;BME280;24929;51.982;4.664;2023-04-26T00:18:15;78089.22;;;-143.36;nan
39209;BME280;24929;51.982;4.664;2023-04-26T00:20:41;78097.25;;;-143.36;nan
39209;BME280;24929;51.982;4.664;2023-04-26T00:23:06;78103.28;;;-143.36;nan
39209;BME280;24929;51.982;4.664;2023-04-26T00:25:34;78101.25;;;-143.36;nan
39209;BME280;24929;51.982;4.664;2023-04-26T00:27:59;78111.31;;;-143.36;nan
39209;BME280;24929;51.982;4.664;2023-04-26T00:30:25;78115.31;;;-143.36;nan
39209;BME280;24929;51.982;4.664;2023-04-26T00:32:50;78105.28;;;-143.36;nan
39209;BME280;24929;51.982;4.664;2023-04-26T00:35:16;78105.28;;;-143.36;nan
39209;BME280;24929;51.982;4.664;2023-04-26T00:37:41;78115.31;;;-143.36;nan
39209;BME280;24929;51.982;4.664;2023-04-26T00:40:07;78133.38;;;-143.36;nan
39209;BME280;24929;51.982;4.664;2023-04-26T00:42:33;78125.34;;;-143.36;nan
39209;BME280;24929;51.982;4.664;2023-04-26T00:44:58;78131.38;;;-143.36;nan
39209;BME280;24929;51.982;4.664;2023-04-26T00:47:24;78099.25;;;-143.36;nan
39209;BME280;24929;51.982;4.664;2023-04-26T00:49:50;78129.38;;;-143.36;nan
39209;BME280;24929;51.982;4.664;2023-04-26T00:52:15;78125.34;;;-143.36;nan
39209;BME280;24929;51.982;4.664;2023-04-26T00:54:41;78131.38;;;-143.36;nan
39209;BME280;24929;51.982;4.664;2023-04-26T00:57:07;78127.38;;;-143.36;nan
39209;BME280;24929;51.982;4.664;2023-04-26T00:59:34;78115.31;;;-143.36;nan
39209;BME280;24929;51.982;4.664;2023-04-26T01:02:02;78105.28;;;-143.36;nan
39209;BME280;24929;51.982;4.664;2023-04-26T01:04:28;78129.38;;;-143.36;nan
39209;BME280;24929;51.982;4.664;2023-04-26T01:06:54;78133.38;;;-143.36;nan
39209;BME280;24929;51.982;4.664;2023-04-26T01:09:20;78131.38;;;-143.36;nan
39209;BME280;24929;51.982;4.664;2023-04-26T01:11:47;78143.41;;;-143.36;nan
39209;BME280;24929;51.982;4.664;2023-04-26T01:14:14;78105.28;;;-143.36;nan
39209;BME280;24929;51.982;4.664;2023-04-26T01:16:39;78145.44;;;-143.36;nan
39209;BME280;24929;51.982;4.664;2023-04-26T01:19:11;78099.25;;;-143.36;nan
39209;BME280;24929;51.982;4.664;2023-04-26T01:21:38;78133.38;;;-143.36;nan
39209;BME280;24929;51.982;4.664;2023-04-26T01:24:04;78149.44;;;-143.36;nan
39209;BME280;24929;51.982;4.664;2023-04-26T01:26:30;78151.44;;;-143.36;nan
39209;BME280;24929;51.982;4.664;2023-04-26T01:28:57;78147.44;;;-143.36;nan
39209;BME280;24929;51.982;4.664;2023-04-26T01:31:22;78165.50;;;-143.36;nan
39209;BME280;24929;51.982;4.664;2023-04-26T01:33:47;78173.53;;;-143.36;nan
39209;BME280;24929;51.982;4.664;2023-04-26T01:36:13;78175.53;;;-143.36;nan
39209;BME280;24929;51.982;4.664;2023-04-26T01:38:38;78183.56;;;-143.36;nan
39209;BME280;24929;51.982;4.664;2023-04-26T01:41:04;78165.50;;;-143.36;nan
39209;BME280;24929;51.982;4.664;2023-04-26T01:43:29;78185.59;;;-143.36;nan
39209;BME280;24929;51.982;4.664;2023-04-26T01:45:54;78193.59;;;-143.36;nan
39209;BME280;24929;51.982;4.664;2023-04-26T01:48:20;78193.59;;;-143.36;nan
39209;BME280;24929;51.982;4.664;2023-04-26T01:50:45;78187.59;;;-143.36;nan
39209;BME280;24929;51.982;4.664;2023-04-26T01:53:11;78193.59;;;-143.36;nan
39209;BME280;24929;51.982;4.664;2023-04-26T01:55:36;78199.63;;;-143.36;nan
39209;BME280;24929;51.982;4.664;2023-04-26T01:58:02;78203.66;;;-143.36;nan
39209;BME280;24929;51.982;4.664;2023-04-26T02:00:28;78185.59;;;-143.36;nan
39209;BME280;24929;51.982;4.664;2023-04-26T02:02:54;78205.66;;;-143.36;nan
39209;BME280;24929;51.982;4.664;2023-04-26T02:05:20;78215.69;;;-143.36;nan
39209;BME280;24929;51.982;4.664;2023-04-26T02:07:46;78227.75;;;-143.36;nan
39209;BME280;24929;51.982;4.664;2023-04-26T02:10:12;78229.75;;;-143.36;nan
39209;BME280;24929;51.982;4.664;2023-04-26T02:12:38;78219.72;;;-143.36;nan
39209;BME280;24929;51.982;4.664;2023-04-26T02:15:03;78225.72;;;-143.36;nan
39209;BME280;24929;51.982;4.664;2023-04-26T02:17:30;78223.72;;;-143.36;nan
39209;BME280;24929;51.982;4.664;2023-04-26T02:19:55;78233.75;;;-143.36;nan
39209;BME280;24929;51.982;4.664;2023-04-26T02:22:22;78213.69;;;-143.36;nan
39209;BME280;24929;51.982;4.664;2023-04-26T02:24:50;78223.72;;;-143.36;nan
39209;BME280;24929;51.982;4.664;2023-04-26T02:27:16;78223.72;;;-143.36;nan
39209;BME280;24929;51.982;4.664;2023-04-26T02:29:41;78225.72;;;-143.36;nan
39209;BME280;24929;51.982;4.664;2023-04-26T02:32:07;78223.72;;;-143.36;nan
39209;BME280;24929;51.982;4.664;2023-04-26T02:34:32;78207.66;;;-143.36;nan
39209;BME280;24929;51.982;4.664;2023-04-26T02:36:58;78187.59;;;-143.36;nan
39209;BME280;24929;51.982;4.664;2023-04-26T02:39:23;78177.56;;;-143.36;nan
39209;BME280;24929;51.982;4.664;2023-04-26T02:41:48;78171.53;;;-143.36;nan
39209;BME280;24929;51.982;4.664;2023-04-26T02:44:15;78161.50;;;-143.36;nan
39209;BME280;24929;51.982;4.664;2023-04-26T02:46:40;78151.44;;;-143.36;nan
39209;BME280;24929;51.982;4.664;2023-04-26T02:49:06;78175.53;;;-143.36;nan
39209;BME280;24929;51.982;4.664;2023-04-26T02:51:31;78155.47;;;-143.36;nan
39209;BME280;24929;51.982;4.664;2023-04-26T02:53:58;78145.44;;;-143.36;nan
39209;BME280;24929;51.982;4.664;2023-04-26T02:56:23;78157.47;;;-143.36;nan
39209;BME280;24929;51.982;4.664;2023-04-26T02:58:49;78141.41;;;-143.36;nan
39209;BME280;24929;51.982;4.664;2023-04-26T03:01:14;78141.41;;;-143.36;nan
39209;BME280;24929;51.982;4.664;2023-04-26T03:03:40;78123.34;;;-143.36;nan
39209;BME280;24929;51.982;4.664;2023-04-26T03:06:06;78145.44;;;-143.36;nan
39209;BME280;24929;51.982;4.664;2023-04-26T03:08:31;78141.41;;;-143.36;nan
39209;BME280;24929;51.982;4.664;2023-04-26T03:10:59;78155.47;;;-143.36;nan
39209;BME280;24929;51.982;4.664;2023-04-26T03:13:24;78157.47;;;-143.36;nan
39209;BME280;24929;51.982;4.664;2023-04-26T03:15:50;78165.50;;;-143.36;nan
39209;BME280;24929;51.982;4.664;2023-04-26T03:18:16;78191.59;;;-143.36;nan
39209;BME280;24929;51.982;4.664;2023-04-26T03:20:42;78193.59;;;-143.36;nan
39209;BME280;24929;51.982;4.664;2023-04-26T03:23:07;78193.59;;;-143.36;nan
39209;BME280;24929;51.982;4.664;2023-04-26T03:25:33;78211.69;;;-143.36;nan
39209;BME280;24929;51.982;4.664;2023-04-26T03:27:58;78211.69;;;-143.36;nan
39209;BME280;24929;51.982;4.664;2023-04-26T03:30:24;78205.66;;;-143.36;nan
39209;BME280;24929;51.982;4.664;2023-04-26T03:32:49;78203.66;;;-143.36;nan
39209;BME280;24929;51.982;4.664;2023-04-26T03:35:15;78199.63;;;-143.36;nan
39209;BME280;24929;51.982;4.664;2023-04-26T03:37:40;78203.66;;;-143.36;nan
39209;BME280;24929;51.982;4.664;2023-04-26T03:40:07;78191.59;;;-143.36;nan
39209;BME280;24929;51.982;4.664;2023-04-26T03:42:33;78199.63;;;-143.36;nan
39209;BME280;24929;51.982;4.664;2023-04-26T03:44:58;78211.69;;;-143.36;nan
39209;BME280;24929;51.982;4.664;2023-04-26T03:47:27;78215.69;;;-143.36;nan
39209;BME280;24929;51.982;4.664;2023-04-26T03:49:52;78199.63;;;-143.36;nan
39209;BME280;24929;51.982;4.664;2023-04-26T03:52:17;78215.69;;;-143.36;nan
39209;BME280;24929;51.982;4.664;2023-04-26T03:54:43;78209.66;;;-143.36;nan
39209;BME280;24929;51.982;4.664;2023-04-26T03:57:09;78207.66;;;-143.36;nan
39209;BME280;24929;51.982;4.664;2023-04-26T03:59:34;78211.69;;;-143.36;nan
39209;BME280;24929;51.982;4.664;2023-04-26T04:01:59;78209.66;;;-143.36;nan
39209;BME280;24929;51.982;4.664;2023-04-26T04:04:25;78207.66;;;-143.36;nan
39209;BME280;24929;51.982;4.664;2023-04-26T04:06:51;78195.63;;;-143.36;nan
39209;BME280;24929;51.982;4.664;2023-04-26T04:09:16;78205.66;;;-143.36;nan
39209;BME280;24929;51.982;4.664;2023-04-26T04:11:42;78213.69;;;-143.36;nan
39209;BME280;24929;51.982;4.664;2023-04-26T04:14:07;78217.69;;;-143.36;nan
39209;BME280;24929;51.982;4.664;2023-04-26T04:16:32;78215.69;;;-143.36;nan
39209;BME280;24929;51.982;4.664;2023-04-26T04:18:58;78227.75;;;-143.36;nan
39209;BME280;24929;51.982;4.664;2023-04-26T04:21:23;78231.75;;;-143.36;nan
39209;BME280;24929;51.982;4.664;2023-04-26T04:23:49;78245.81;;;-143.36;nan
39209;BME280;24929;51.982;4.664;2023-04-26T04:26:14;78225.72;;;-143.36;nan
39209;BME280;24929;51.982;4.664;2023-04-26T04:28:40;78235.78;;;-143.36;nan
39209;BME280;24929;51.982;4.664;2023-04-26T04:31:06;78229.75;;;-143.36;nan
39209;BME280;24929;51.982;4.664;2023-04-26T04:33:34;78261.88;;;-143.36;nan
39209;BME280;24929;51.982;4.664;2023-04-26T04:36:00;78231.75;;;-143.36;nan
39209;BME280;24929;51.982;4.664;2023-04-26T04:38:25;78247.81;;;-143.36;nan
39209;BME280;24929;51.982;4.664;2023-04-26T04:40:50;78223.72;;;-143.36;nan
39209;BME280;24929;51.982;4.664;2023-04-26T04:43:16;78191.59;;;-143.36;nan
39209;BME280;24929;51.982;4.664;2023-04-26T04:45:42;78215.69;;;-143.36;nan
39209;BME280;24929;51.982;4.664;2023-04-26T04:48:07;78201.66;;;-143.36;nan
39209;BME280;24929;51.982;4.664;2023-04-26T04:50:33;78191.59;;;-143.36;nan
39209;BME280;24929;51.982;4.664;2023-04-26T04:52:59;78205.66;;;-143.36;nan
39209;BME280;24929;51.982;4.664;2023-04-26T04:55:25;78187.59;;;-143.36;nan
39209;BME280;24929;51.982;4.664;2023-04-26T04:57:50;78197.63;;;-143.36;nan
39209;BME280;24929;51.982;4.664;2023-04-26T05:00:16;78147.44;;;-143.36;nan
39209;BME280;24929;51.982;4.664;2023-04-26T05:02:41;78167.50;;;-143.36;nan
39209;BME280;24929;51.982;4.664;2023-04-26T05:05:07;78181.56;;;-143.36;nan
39209;BME280;24929;51.982;4.664;2023-04-26T05:07:33;78187.59;;;-143.36;nan
39209;BME280;24929;51.982;4.664;2023-04-26T05:09:59;78159.47;;;-143.36;nan
39209;BME280;24929;51.982;4.664;2023-04-26T05:12:25;78135.41;;;-143.36;nan
39209;BME280;24929;51.982;4.664;2023-04-26T05:14:50;78101.25;;;-143.36;nan
39209;BME280;24929;51.982;4.664;2023-04-26T05:17:16;78097.25;;;-143.36;nan
39209;BME280;24929;51.982;4.664;2023-04-26T05:19:41;78002.91;;;-143.36;nan
39209;BME280;24929;51.982;4.664;2023-04-26T05:22:07;77922.59;;;-143.36;nan
39209;BME280;24929;51.982;4.664;2023-04-26T05:24:32;77822.22;;;-143.36;nan
39209;BME280;24929;51.982;4.664;2023-04-26T05:26:58;77685.72;;;-143.36;nan
39209;BME280;24929;51.982;4.664;2023-04-26T05:29:28;77561.28;;;-143.36;nan
39209;BME280;24929;51.982;4.664;2023-04-26T05:31:56;77464.94;;;-143.36;nan
39209;BME280;24929;51.982;4.664;2023-04-26T05:34:24;77368.59;;;-143.36;nan
39209;BME280;24929;51.982;4.664;2023-04-26T05:36:50;77392.69;;;-143.36;nan
39209;BME280;24929;51.982;4.664;2023-04-26T05:39:16;77302.34;;;-143.36;nan
39209;BME280;24929;51.982;4.664;2023-04-26T05:41:42;77296.34;;;-143.36;nan
39209;BME280;24929;51.982;4.664;2023-04-26T05:44:07;77286.31;;;-143.36;nan
39209;BME280;24929;51.982;4.664;2023-04-26T05:46:32;77288.31;;;-143.36;nan
39209;BME280;24929;51.982;4.664;2023-04-26T05:48:58;77298.34;;;-143.36;nan
39209;BME280;24929;51.982;4.664;2023-04-26T05:51:23;77330.44;;;-143.36;nan
39209;BME280;24929;51.982;4.664;2023-04-26T05:53:48;77378.63;;;-143.36;nan
39209;BME280;24929;51.982;4.664;2023-04-26T05:56:14;77356.53;;;-143.36;nan
39209;BME280;24929;51.982;4.664;2023-04-26T05:58:39;77314.41;;;-143.36;nan
39209;BME280;24929;51.982;4.664;2023-04-26T06:01:05;77185.94;;;-143.36;nan
39209;BME280;24929;51.982;4.664;2023-04-26T06:03:30;77226.09;;;-143.36;nan
39209;BME280;24929;51.982;4.664;2023-04-26T06:05:55;77218.06;;;-143.36;nan
39209;BME280;24929;51.982;4.664;2023-04-26T06:08:21;77258.19;;;-143.36;nan
39209;BME280;24929;51.982;4.664;2023-04-26T06:10:46;77302.34;;;-143.36;nan
39209;BME280;24929;51.982;4.664;2023-04-26T06:13:11;77328.44;;;-143.36;nan
39209;BME280;24929;51.982;4.664;2023-04-26T06:15:37;77382.63;;;-143.36;nan
39209;BME280;24929;51.982;4.664;2023-04-26T06:18:05;77370.59;;;-143.36;nan
39209;BME280;24929;51.982;4.664;2023-04-26T06:20:32;77378.63;;;-143.36;nan
39209;BME280;24929;51.982;4.664;2023-04-26T06:22:57;77410.75;;;-143.36;nan
39209;BME280;24929;51.982;4.664;2023-04-26T06:25:22;77378.63;;;-143.36;nan
39209;BME280;24929;51.982;4.664;2023-04-26T06:27:48;77368.59;;;-143.36;nan
39209;BME280;24929;51.982;4.664;2023-04-26T06:30:13;77398.69;;;-143.36;nan
39209;BME280;24929;51.982;4.664;2023-04-26T06:32:40;77408.72;;;-143.36;nan
39209;BME280;24929;51.982;4.664;2023-04-26T06:35:05;77408.72;;;-143.36;nan
39209;BME280;24929;51.982;4.664;2023-04-26T06:37:31;77402.72;;;-143.36;nan
39209;BME280;24929;51.982;4.664;2023-04-26T06:39:56;77422.78;;;-143.36;nan
39209;BME280;24929;51.982;4.664;2023-04-26T06:42:22;77432.81;;;-143.36;nan
39209;BME280;24929;51.982;4.664;2023-04-26T06:44:47;77430.81;;;-143.36;nan
39209;BME280;24929;51.982;4.664;2023-04-26T06:47:13;77497.06;;;-143.36;nan
39209;BME280;24929;51.982;4.664;2023-04-26T06:49:38;77476.97;;;-143.36;nan
39209;BME280;24929;51.982;4.664;2023-04-26T06:52:05;77485.00;;;-143.36;nan
39209;BME280;24929;51.982;4.664;2023-04-26T06:54:31;77481.00;;;-143.36;nan
39209;BME280;24929;51.982;4.664;2023-04-26T06:56:56;77464.94;;;-143.36;nan
39209;BME280;24929;51.982;4.664;2023-04-26T06:59:22;77537.19;;;-143.36;nan
39209;BME280;24929;51.982;4.664;2023-04-26T07:01:47;77523.16;;;-143.36;nan
39209;BME280;24929;51.982;4.664;2023-04-26T07:04:13;77446.88;;;-143.36;nan
39209;BME280;24929;51.982;4.664;2023-04-26T07:06:39;77376.63;;;-143.36;nan
39209;BME280;24929;51.982;4.664;2023-04-26T07:09:05;77342.50;;;-143.36;nan
39209;BME280;24929;51.982;4.664;2023-04-26T07:11:31;77316.41;;;-143.36;nan
39209;BME280;24929;51.982;4.664;2023-04-26T07:13:56;77354.53;;;-143.36;nan
39209;BME280;24929;51.982;4.664;2023-04-26T07:16:22;77360.56;;;-143.36;nan
39209;BME280;24929;51.982;4.664;2023-04-26T07:18:47;77372.59;;;-143.36;nan
39209;BME280;24929;51.982;4.664;2023-04-26T07:21:13;77400.72;;;-143.36;nan
39209;BME280;24929;51.982;4.664;2023-04-26T07:23:38;77326.44;;;-143.36;nan
39209;BME280;24929;51.982;4.664;2023-04-26T07:26:04;77220.06;;;-143.36;nan
39209;BME280;24929;51.982;4.664;2023-04-26T07:28:30;77153.84;;;-143.36;nan
39209;BME280;24929;51.982;4.664;2023-04-26T07:30:57;77145.81;;;-143.36;nan
39209;BME280;24929;51.982;4.664;2023-04-26T07:33:22;77171.91;;;-143.36;nan
39209;BME280;24929;51.982;4.664;2023-04-26T07:35:58;77204.00;;;-143.36;nan
39209;BME280;24929;51.982;4.664;2023-04-26T07:38:25;77298.34;;;-143.36;nan
39209;BME280;24929;51.982;4.664;2023-04-26T07:40:51;77306.38;;;-143.36;nan
39209;BME280;24929;51.982;4.664;2023-04-26T07:43:18;77290.31;;;-143.36;nan
39209;BME280;24929;51.982;4.664;2023-04-26T07:45:43;77396.69;;;-143.36;nan
39209;BME280;24929;51.982;4.664;2023-04-26T07:48:09;77444.88;;;-143.36;nan
39209;BME280;24929;51.982;4.664;2023-04-26T07:50:34;77603.44;;;-143.36;nan
39209;BME280;24929;51.982;4.664;2023-04-26T07:53:00;77619.50;;;-143.36;nan
39209;BME280;24929;51.982;4.664;2023-04-26T07:55:25;77531.16;;;-143.36;nan
39209;BME280;24929;51.982;4.664;2023-04-26T07:57:51;77539.19;;;-143.36;nan
39209;BME280;24929;51.982;4.664;2023-04-26T08:00:17;77503.06;;;-143.36;nan
39209;BME280;24929;51.982;4.664;2023-04-26T08:02:43;77567.31;;;-143.36;nan
39209;BME280;24929;51.982;4.664;2023-04-26T08:05:12;77591.38;;;-143.36;nan
39209;BME280;24929;51.982;4.664;2023-04-26T08:07:38;77557.25;;;-143.36;nan
39209;BME280;24929;51.982;4.664;2023-04-26T08:10:04;77521.13;;;-143.36;nan
39209;BME280;24929;51.982;4.664;2023-04-26T08:12:29;77537.19;;;-143.36;nan
39209;BME280;24929;51.982;4.664;2023-04-26T08:14:55;77523.16;;;-143.36;nan
39209;BME280;24929;51.982;4.664;2023-04-26T08:17:20;77464.94;;;-143.36;nan
39209;BME280;24929;51.982;4.664;2023-04-26T08:19:45;77523.16;;;-143.36;nan
39209;BME280;24929;51.982;4.664;2023-04-26T08:22:11;77533.19;;;-143.36;nan
39209;BME280;24929;51.982;4.664;2023-04-26T08:24:36;77450.88;;;-143.36;nan
39209;BME280;24929;51.982;4.664;2023-04-26T08:27:01;77481.00;;;-143.36;nan
39209;BME280;24929;51.982;4.664;2023-04-26T08:29:27;77478.97;;;-143.36;nan
39209;BME280;24929;51.982;4.664;2023-04-26T08:31:53;77438.84;;;-143.36;nan
39209;BME280;24929;51.982;4.664;2023-04-26T08:34:18;77468.94;;;-143.36;nan
39209;BME280;24929;51.982;4.664;2023-04-26T08:36:44;77474.97;;;-143.36;nan
39209;BME280;24929;51.982;4.664;2023-04-26T08:39:10;77450.88;;;-143.36;nan
39209;BME280;24929;51.982;4.664;2023-04-26T08:41:43;77382.63;;;-143.36;nan
39209;BME280;24929;51.982;4.664;2023-04-26T08:44:10;77356.53;;;-143.36;nan
39209;BME280;24929;51.982;4.664;2023-04-26T08:49:39;77246.16;;;-143.36;nan
39209;BME280;24929;51.982;4.664;2023-04-26T08:52:08;77240.13;;;-143.36;nan
39209;BME280;24929;51.982;4.664;2023-04-26T08:54:35;77226.09;;;-143.36;nan
39209;BME280;24929;51.982;4.664;2023-04-26T08:57:02;77268.25;;;-143.36;nan
39209;BME280;24929;51.982;4.664;2023-04-26T08:59:29;77350.53;;;-143.36;nan
39209;BME280;24929;51.982;4.664;2023-04-26T09:01:55;77242.16;;;-143.36;nan
39209;BME280;24929;51.982;4.664;2023-04-26T09:04:22;77246.16;;;-143.36;nan
39209;BME280;24929;51.982;4.664;2023-04-26T09:06:49;77155.84;;;-143.36;nan
39209;BME280;24929;51.982;4.664;2023-04-26T09:09:17;77157.84;;;-143.36;nan
39209;BME280;24929;51.982;4.664;2023-04-26T09:11:57;77236.13;;;-143.36;nan
39209;BME280;24929;51.982;4.664;2023-04-26T09:14:24;77222.06;;;-143.36;nan
39209;BME280;24929;51.982;4.664;2023-04-26T09:16:49;77236.13;;;-143.36;nan
39209;BME280;24929;51.982;4.664;2023-04-26T09:19:16;77189.97;;;-143.36;nan
39209;BME280;24929;51.982;4.664;2023-04-26T09:21:45;77137.78;;;-143.36;nan
39209;BME280;24929;51.982;4.664;2023-04-26T09:24:12;77151.81;;;-143.36;nan
39209;BME280;24929;51.982;4.664;2023-04-26T09:26:38;77129.75;;;-143.36;nan
39209;BME280;24929;51.982;4.664;2023-04-26T09:29:13;77129.75;;;-143.36;nan
39209;BME280;24929;51.982;4.664;2023-04-26T09:31:42;77147.81;;;-143.36;nan
39209;BME280;24929;51.982;4.664;2023-04-26T09:34:09;77222.06;;;-143.36;nan
39209;BME280;24929;51.982;4.664;2023-04-26T09:36:54;77181.94;;;-143.36;nan
39209;BME280;24929;51.982;4.664;2023-04-26T09:39:36;77177.91;;;-143.36;nan
39209;BME280;24929;51.982;4.664;2023-04-26T09:42:15;77163.88;;;-143.36;nan
39209;BME280;24929;51.982;4.664;2023-04-26T09:44:41;77228.09;;;-143.36;nan
39209;BME280;24929;51.982;4.664;2023-04-26T09:47:09;77212.03;;;-143.36;nan
39209;BME280;24929;51.982;4.664;2023-04-26T09:49:46;77129.75;;;-143.36;nan
39209;BME280;24929;51.982;4.664;2023-04-26T09:52:13;77234.13;;;-143.36;nan
39209;BME280;24929;51.982;4.664;2023-04-26T09:54:44;77330.44;;;-143.36;nan
39209;BME280;24929;51.982;4.664;2023-04-26T09:57:12;77294.31;;;-143.36;nan
39209;BME280;24929;51.982;4.664;2023-04-26T09:59:42;77274.25;;;-143.36;nan
39209;BME280;24929;51.982;4.664;2023-04-26T10:02:12;77386.66;;;-143.36;nan
39209;BME280;24929;51.982;4.664;2023-04-26T10:04:38;77434.81;;;-143.36;nan
39209;BME280;24929;51.982;4.664;2023-04-26T10:07:04;77438.84;;;-143.36;nan
39209;BME280;24929;51.982;4.664;2023-04-26T10:09:30;77440.84;;;-143.36;nan
39209;BME280;24929;51.982;4.664;2023-04-26T10:11:57;77485.00;;;-143.36;nan
39209;BME280;24929;51.982;4.664;2023-04-26T10:14:23;77599.41;;;-143.36;nan
39209;BME280;24929;51.982;4.664;2023-04-26T10:16:49;77651.59;;;-143.36;nan
39209;BME280;24929;51.982;4.664;2023-04-26T10:19:14;77669.69;;;-143.36;nan
39209;BME280;24929;51.982;4.664;2023-04-26T10:21:40;77577.34;;;-143.36;nan
39209;BME280;24929;51.982;4.664;2023-04-26T10:24:07;77591.38;;;-143.36;nan
39209;BME280;24929;51.982;4.664;2023-04-26T10:26:50;77444.88;;;-143.36;nan
39209;BME280;24929;51.982;4.664;2023-04-26T10:29:20;77396.69;;;-143.36;nan
39209;BME280;24929;51.982;4.664;2023-04-26T10:34:27;77310.38;;;-143.36;nan
39209;BME280;24929;51.982;4.664;2023-04-26T10:39:32;77336.47;;;-143.36;nan
39209;BME280;24929;51.982;4.664;2023-04-26T10:42:17;77224.06;;;-143.36;nan
39209;BME280;24929;51.982;4.664;2023-04-26T10:44:47;77240.13;;;-143.36;nan
39209;BME280;24929;51.982;4.664;2023-04-26T10:47:33;77139.78;;;-143.36;nan
39209;BME280;24929;51.982;4.664;2023-04-26T10:50:07;77147.81;;;-143.36;nan
39209;BME280;24929;51.982;4.664;2023-04-26T10:52:35;77179.94;;;-143.36;nan
39209;BME280;24929;51.982;4.664;2023-04-26T10:55:01;77153.84;;;-143.36;nan
39209;BME280;24929;51.982;4.664;2023-04-26T10:57:47;77137.78;;;-143.36;nan
39209;BME280;24929;51.982;4.664;2023-04-26T11:00:27;77097.63;;;-143.36;nan
39209;BME280;24929;51.982;4.664;2023-04-26T11:05:39;76983.25;;;-143.36;nan
39209;BME280;24929;51.982;4.664;2023-04-26T11:10:36;76963.16;;;-143.36;nan
39209;BME280;24929;51.982;4.664;2023-04-26T11:13:02;76981.22;;;-143.36;nan
39209;BME280;24929;51.982;4.664;2023-04-26T11:15:30;76915.00;;;-143.36;nan
39209;BME280;24929;51.982;4.664;2023-04-26T11:17:55;76985.25;;;-143.36;nan
39209;BME280;24929;51.982;4.664;2023-04-26T11:20:21;76965.19;;;-143.36;nan
39209;BME280;24929;51.982;4.664;2023-04-26T11:22:46;76967.19;;;-143.36;nan
39209;BME280;24929;51.982;4.664;2023-04-26T11:25:12;76892.94;;;-143.36;nan
39209;BME280;24929;51.982;4.664;2023-04-26T11:27:38;76860.81;;;-143.36;nan
39209;BME280;24929;51.982;4.664;2023-04-26T11:30:03;76908.97;;;-143.36;nan
39209;BME280;24929;51.982;4.664;2023-04-26T11:32:29;76806.63;;;-143.36;nan
39209;BME280;24929;51.982;4.664;2023-04-26T11:34:59;76710.31;;;-143.36;nan
39209;BME280;24929;51.982;4.664;2023-04-26T11:37:24;76818.66;;;-143.36;nan
39209;BME280;24929;51.982;4.664;2023-04-26T11:39:50;76826.69;;;-143.36;nan
39209;BME280;24929;51.982;4.664;2023-04-26T11:42:15;76822.69;;;-143.36;nan
39209;BME280;24929;51.982;4.664;2023-04-26T11:44:41;76876.88;;;-143.36;nan
39209;BME280;24929;51.982;4.664;2023-04-26T11:47:07;76886.91;;;-143.36;nan
39209;BME280;24929;51.982;4.664;2023-04-26T11:49:35;76933.06;;;-143.36;nan
39209;BME280;24929;51.982;4.664;2023-04-26T11:52:02;76955.13;;;-143.36;nan
39209;BME280;24929;51.982;4.664;2023-04-26T11:54:33;76971.19;;;-143.36;nan
39209;BME280;24929;51.982;4.664;2023-04-26T11:56:58;76987.25;;;-143.36;nan
39209;BME280;24929;51.982;4.664;2023-04-26T11:59:25;76975.22;;;-143.36;nan
39209;BME280;24929;51.982;4.664;2023-04-26T12:01:51;77127.75;;;-143.36;nan
39209;BME280;24929;51.982;4.664;2023-04-26T12:04:28;77117.72;;;-143.36;nan
39209;BME280;24929;51.982;4.664;2023-04-26T12:06:55;77181.94;;;-143.36;nan
39209;BME280;24929;51.982;4.664;2023-04-26T12:09:27;77021.38;;;-143.36;nan
39209;BME280;24929;51.982;4.664;2023-04-26T12:11:57;76967.19;;;-143.36;nan
39209;BME280;24929;51.982;4.664;2023-04-26T12:14:33;76981.22;;;-143.36;nan
39209;BME280;24929;51.982;4.664;2023-04-26T12:16:59;76836.72;;;-143.36;nan
39209;BME280;24929;51.982;4.664;2023-04-26T12:19:34;76738.41;;;-143.36;nan
39209;BME280;24929;51.982;4.664;2023-04-26T12:22:00;76662.13;;;-143.36;nan
39209;BME280;24929;51.982;4.664;2023-04-26T12:24:28;76670.16;;;-143.36;nan
39209;BME280;24929;51.982;4.664;2023-04-26T12:26:54;76726.34;;;-143.36;nan
39209;BME280;24929;51.982;4.664;2023-04-26T12:29:20;76730.38;;;-143.36;nan
39209;BME280;24929;51.982;4.664;2023-04-26T12:31:45;76834.72;;;-143.36;nan
39209;BME280;24929;51.982;4.664;2023-04-26T12:34:11;76832.72;;;-143.36;nan
39209;BME280;24929;51.982;4.664;2023-04-26T12:36:39;76788.56;;;-143.36;nan
39209;BME280;24929;51.982;4.664;2023-04-26T12:39:04;76945.09;;;-143.36;nan
39209;BME280;24929;51.982;4.664;2023-04-26T12:41:31;76870.84;;;-143.36;nan
39209;BME280;24929;51.982;4.664;2023-04-26T12:43:56;76915.00;;;-143.36;nan
39209;BME280;24929;51.982;4.664;2023-04-26T12:46:22;77011.34;;;-143.36;nan
39209;BME280;24929;51.982;4.664;2023-04-26T12:48:47;77009.31;;;-143.36;nan
39209;BME280;24929;51.982;4.664;2023-04-26T12:51:12;77093.63;;;-143.36;nan
39209;BME280;24929;51.982;4.664;2023-04-26T12:53:38;77071.53;;;-143.36;nan
39209;BME280;24929;51.982;4.664;2023-04-26T12:56:04;77033.41;;;-143.36;nan
39209;BME280;24929;51.982;4.664;2023-04-26T12:58:29;77083.59;;;-143.36;nan
39209;BME280;24929;51.982;4.664;2023-04-26T13:00:55;77029.41;;;-143.36;nan
39209;BME280;24929;51.982;4.664;2023-04-26T13:03:20;77041.44;;;-143.36;nan
39209;BME280;24929;51.982;4.664;2023-04-26T13:05:46;77023.38;;;-143.36;nan
39209;BME280;24929;51.982;4.664;2023-04-26T13:08:11;77095.63;;;-143.36;nan
39209;BME280;24929;51.982;4.664;2023-04-26T13:10:36;77143.78;;;-143.36;nan